Time;durP1;ratioP1;P1;durP2;ratioP2;P2;SDS_P1;SDS_P2;PMS_P1;PMS_P2;Temp;Humidity;BMP_temperature;BMP_pressure;BME280_temperature;BME280_humidity;BME280_pressure;Samples;Min_cycle;Max_cycle;Signal;HPM_P1;HPM_P2
2022/05/06 00:02:18;;;;;;;30.23;16.98;;;10.90;99.90;;;;;;5013555;28;20022;-77
2022/05/06 00:04:44;;;;;;;30.60;16.88;;;10.90;99.90;;;;;;5013380;28;20464;-77
2022/05/06 00:07:12;;;;;;;38.70;17.42;;;10.90;99.90;;;;;;5013446;28;20029;-78
2022/05/06 00:09:38;;;;;;;47.00;18.13;;;10.90;99.90;;;;;;5013369;28;20081;-72
2022/05/06 00:12:05;;;;;;;30.58;16.70;;;10.80;99.90;;;;;;4992366;28;20404;-73
2022/05/06 00:14:31;;;;;;;29.15;16.27;;;10.90;99.90;;;;;;4993898;28;20046;-77
2022/05/06 00:16:56;;;;;;;25.77;14.73;;;10.80;99.90;;;;;;4992373;28;20022;-77
2022/05/06 00:19:22;;;;;;;22.25;13.10;;;10.80;99.90;;;;;;4993646;28;20030;-77
2022/05/06 00:21:47;;;;;;;23.83;13.30;;;10.80;99.90;;;;;;4993682;28;20026;-78
2022/05/06 00:24:13;;;;;;;19.88;13.57;;;10.80;99.90;;;;;;4993765;28;20030;-73
2022/05/06 00:26:38;;;;;;;19.98;12.77;;;10.80;99.90;;;;;;4993630;28;20020;-73
2022/05/06 00:29:04;;;;;;;14.73;11.65;;;10.90;99.90;;;;;;4993536;28;20114;-73
2022/05/06 00:31:30;;;;;;;14.55;11.55;;;10.90;99.90;;;;;;4993437;28;20062;-73
2022/05/06 00:33:55;;;;;;;17.08;12.60;;;10.90;99.90;;;;;;4992328;28;20022;-77
2022/05/06 00:36:21;;;;;;;17.20;12.55;;;11.00;99.90;;;;;;4992248;28;20106;-77
2022/05/06 00:38:46;;;;;;;15.68;12.45;;;11.00;99.90;;;;;;4992255;28;20097;-73
2022/05/06 00:41:12;;;;;;;17.95;12.82;;;10.90;99.90;;;;;;4992240;28;20026;-77
2022/05/06 00:43:41;;;;;;;15.50;11.88;;;10.90;99.90;;;;;;4993443;28;20097;-77
2022/05/06 00:46:16;;;;;;;15.23;11.30;;;10.90;99.90;;;;;;4995282;28;20022;-77
2022/05/06 00:48:45;;;;;;;14.93;12.38;;;10.90;99.90;;;;;;4995886;28;20030;-73
2022/05/06 00:51:12;;;;;;;13.63;11.75;;;10.90;99.90;;;;;;4997109;28;20038;-73
2022/05/06 00:53:39;;;;;;;15.30;12.43;;;10.90;99.90;;;;;;4997124;28;20417;-77
2022/05/06 00:56:09;;;;;;;14.70;12.35;;;10.90;99.90;;;;;;4997128;28;20041;-73
2022/05/06 00:58:35;;;;;;;16.42;12.05;;;10.90;99.90;;;;;;4997115;28;20022;-73
2022/05/06 01:01:03;;;;;;;15.55;11.82;;;10.90;99.90;;;;;;4995716;28;20021;-73
2022/05/06 01:03:28;;;;;;;13.63;11.43;;;10.90;99.90;;;;;;4996956;28;20027;-74
2022/05/06 01:05:54;;;;;;;17.25;12.30;;;10.90;99.90;;;;;;4995569;28;20435;-77
2022/05/06 01:08:20;;;;;;;18.48;13.20;;;10.90;99.90;;;;;;4995510;28;20046;-77
2022/05/06 01:10:47;;;;;;;14.40;11.60;;;10.90;99.90;;;;;;5002474;28;20068;-76
2022/05/06 01:13:13;;;;;;;17.35;12.93;;;10.90;99.90;;;;;;5016326;28;20032;-77
2022/05/06 01:15:38;;;;;;;16.80;12.40;;;10.90;99.90;;;;;;4998633;28;20026;-72
2022/05/06 01:18:04;;;;;;;19.80;13.05;;;10.90;99.90;;;;;;5016279;28;20026;-77
2022/05/06 01:20:37;;;;;;;16.92;12.30;;;10.80;99.90;;;;;;5016327;28;20022;-78
2022/05/06 01:23:04;;;;;;;15.20;11.38;;;10.80;99.90;;;;;;5016354;28;20692;-78
2022/05/06 01:25:30;;;;;;;16.13;10.90;;;10.80;99.90;;;;;;5014862;28;20426;-77
2022/05/06 01:28:02;;;;;;;17.15;11.57;;;10.70;99.90;;;;;;5014791;28;20455;-73
2022/05/06 01:30:36;;;;;;;15.02;10.63;;;10.70;99.90;;;;;;5015994;28;20045;-73
2022/05/06 01:33:07;;;;;;;15.48;12.30;;;10.60;99.90;;;;;;5015864;28;20052;-73
2022/05/06 01:35:41;;;;;;;14.40;11.35;;;10.60;99.90;;;;;;4998210;28;20025;-73
2022/05/06 01:38:07;;;;;;;19.02;12.68;;;10.60;99.90;;;;;;4998152;28;20128;-73
2022/05/06 01:40:43;;;;;;;16.92;11.68;;;10.60;99.90;;;;;;4998276;28;20440;-73
2022/05/06 01:43:13;;;;;;;17.38;12.77;;;10.50;99.90;;;;;;5015846;28;20116;-73
2022/05/06 01:45:40;;;;;;;19.00;14.10;;;10.50;99.90;;;;;;4998015;28;20022;-74
2022/05/06 01:48:07;;;;;;;21.30;13.82;;;10.40;99.90;;;;;;5015833;28;20034;-77
2022/05/06 01:50:37;;;;;;;30.55;14.73;;;10.30;99.90;;;;;;4997915;28;20442;-77
2022/05/06 01:53:03;;;;;;;30.75;16.17;;;10.20;99.90;;;;;;4999586;28;20033;-73
2022/05/06 01:55:29;;;;;;;62.75;16.48;;;10.00;99.90;;;;;;4995903;28;20027;-77
2022/05/06 01:57:55;;;;;;;38.55;15.18;;;9.90;99.90;;;;;;4995804;28;20027;-73
2022/05/06 02:00:20;;;;;;;26.35;16.15;;;9.90;99.90;;;;;;4978346;28;20029;-77
2022/05/06 02:02:46;;;;;;;22.23;16.38;;;9.90;99.90;;;;;;4978496;28;20113;-73
2022/05/06 02:05:17;;;;;;;22.67;14.95;;;9.90;99.90;;;;;;4978290;28;20117;-72
2022/05/06 02:07:51;;;;;;;20.48;15.02;;;9.90;99.90;;;;;;4995808;28;20049;-72
2022/05/06 02:10:19;;;;;;;20.58;15.88;;;9.90;99.90;;;;;;4995464;28;20101;-77
2022/05/06 02:12:47;;;;;;;21.05;15.05;;;9.90;99.90;;;;;;4978044;28;20027;-77
2022/05/06 02:15:14;;;;;;;18.25;14.05;;;9.90;99.90;;;;;;4995635;28;20077;-76
2022/05/06 02:17:41;;;;;;;19.75;14.57;;;9.90;99.90;;;;;;4995489;28;20022;-73
2022/05/06 02:20:09;;;;;;;16.85;12.68;;;9.90;99.90;;;;;;4995507;28;20487;-77
2022/05/06 02:22:36;;;;;;;16.95;13.48;;;9.80;99.90;;;;;;4995467;28;20081;-73
2022/05/06 02:25:04;;;;;;;16.15;12.52;;;9.80;99.90;;;;;;4977952;28;20026;-73
2022/05/06 02:27:30;;;;;;;17.27;12.75;;;9.70;99.90;;;;;;4977861;28;20030;-77
2022/05/06 02:35:25;;;;;;;17.27;12.55;;;9.60;99.90;;;;;;4995291;28;20036;-73
2022/05/06 02:37:51;;;;;;;18.05;13.15;;;9.60;99.90;;;;;;4977912;28;20026;-73
2022/05/06 02:40:17;;;;;;;13.55;11.23;;;9.50;99.90;;;;;;4993950;28;20069;-73
2022/05/06 02:42:43;;;;;;;19.17;14.07;;;9.40;99.90;;;;;;4995068;28;20030;-77
2022/05/06 02:45:09;;;;;;;19.65;13.65;;;9.40;99.90;;;;;;4994945;28;20468;-78
2022/05/06 02:47:35;;;;;;;23.27;15.43;;;9.40;99.90;;;;;;4993686;28;20448;-73
2022/05/06 02:50:01;;;;;;;23.08;15.50;;;9.30;99.90;;;;;;4977342;28;20026;-76
2022/05/06 02:52:26;;;;;;;23.25;15.57;;;9.30;99.90;;;;;;4995020;28;20022;-77
2022/05/06 02:54:52;;;;;;;20.48;16.27;;;9.30;99.90;;;;;;4994973;28;20031;-73
2022/05/06 02:57:17;;;;;;;19.73;14.52;;;9.40;99.90;;;;;;4994832;28;20026;-73
2022/05/06 02:59:43;;;;;;;19.25;13.88;;;9.30;99.90;;;;;;4994715;28;20387;-72
2022/05/06 03:02:08;;;;;;;17.50;13.95;;;9.30;99.90;;;;;;4977231;28;20034;-75
2022/05/06 03:04:34;;;;;;;18.05;12.55;;;9.20;99.90;;;;;;4977275;28;20085;-77
2022/05/06 03:07:01;;;;;;;21.02;13.18;;;9.20;99.90;;;;;;4994625;28;20058;-77
2022/05/06 03:09:27;;;;;;;21.52;13.70;;;9.20;99.90;;;;;;4992791;28;20026;-76
2022/05/06 03:11:52;;;;;;;17.88;12.35;;;9.20;99.90;;;;;;4994491;28;20081;-73
2022/05/06 03:14:18;;;;;;;17.45;12.77;;;9.20;99.90;;;;;;4994492;28;20041;-74
2022/05/06 03:16:44;;;;;;;16.88;11.75;;;9.20;99.90;;;;;;4994447;28;20061;-76
2022/05/06 03:19:10;;;;;;;19.33;13.95;;;9.20;99.90;;;;;;4977097;28;20473;-72
2022/05/06 03:21:36;;;;;;;15.48;10.95;;;9.30;99.90;;;;;;4994259;28;20022;-72
2022/05/06 03:24:01;;;;;;;11.10;8.55;;;9.20;99.90;;;;;;4994466;28;20027;-74
2022/05/06 03:26:27;;;;;;;12.20;9.18;;;9.20;99.90;;;;;;4994343;28;20037;-76
2022/05/06 03:28:56;;;;;;;10.75;7.72;;;9.10;99.90;;;;;;4994472;28;20028;-73
2022/05/06 03:31:22;;;;;;;12.30;8.98;;;9.00;99.90;;;;;;4994118;28;20616;-77
2022/05/06 03:33:49;;;;;;;12.98;9.77;;;8.90;99.90;;;;;;4993022;28;20121;-77
2022/05/06 03:36:15;;;;;;;25.80;11.90;;;9.00;99.90;;;;;;4992842;28;20033;-77
2022/05/06 03:38:41;;;;;;;24.58;12.75;;;8.90;99.90;;;;;;4994200;28;20034;-76
2022/05/06 03:41:06;;;;;;;18.13;12.57;;;9.00;99.90;;;;;;4994225;28;20026;-77
2022/05/06 03:43:32;;;;;;;17.00;12.43;;;9.00;99.90;;;;;;4994093;28;20027;-74
2022/05/06 03:45:57;;;;;;;18.88;12.93;;;9.10;99.90;;;;;;4992835;28;20034;-77
2022/05/06 03:48:26;;;;;;;21.30;13.18;;;9.10;99.90;;;;;;4993981;28;20114;-73
2022/05/06 03:53:36;;;;;;;21.48;13.70;;;9.20;99.90;;;;;;4994333;28;20041;-72
2022/05/06 03:56:03;;;;;;;18.73;12.88;;;9.30;99.90;;;;;;4993944;28;20100;-72
2022/05/06 03:58:28;;;;;;;19.40;13.43;;;9.30;99.90;;;;;;4993793;28;20068;-77
2022/05/06 04:00:54;;;;;;;17.27;13.30;;;9.40;99.90;;;;;;4992659;28;20065;-77
2022/05/06 04:03:19;;;;;;;20.63;14.98;;;9.50;99.90;;;;;;4976480;28;20392;-74
2022/05/06 04:05:45;;;;;;;20.02;15.25;;;9.50;99.90;;;;;;4976468;28;20113;-77
2022/05/06 04:08:11;;;;;;;26.30;17.15;;;9.50;99.90;;;;;;4993831;28;20023;-77
2022/05/06 04:10:36;;;;;;;20.95;15.25;;;9.60;99.90;;;;;;4992298;28;20412;-76
2022/05/06 04:13:05;;;;;;;24.90;16.95;;;9.60;99.90;;;;;;4993396;28;20105;-72
2022/05/06 04:15:33;;;;;;;21.38;15.82;;;9.60;99.90;;;;;;4976287;28;20122;-77
2022/05/06 04:18:00;;;;;;;23.98;16.35;;;9.70;99.90;;;;;;4993534;28;20027;-77
2022/05/06 04:25:55;;;;;;;25.63;16.73;;;9.90;99.90;;;;;;4997979;28;20049;-78
2022/05/06 04:28:21;;;;;;;24.27;16.80;;;10.00;99.90;;;;;;4997482;28;20077;-73
2022/05/06 04:30:47;;;;;;;29.23;18.02;;;10.00;99.90;;;;;;4980001;28;20043;-77
2022/05/06 04:33:12;;;;;;;28.38;19.13;;;10.00;99.90;;;;;;4980061;28;20435;-74
2022/05/06 04:35:39;;;;;;;23.15;16.23;;;10.10;99.90;;;;;;4997410;28;20114;-73
2022/05/06 04:38:05;;;;;;;25.77;18.50;;;10.20;99.90;;;;;;4997178;28;20030;-78
2022/05/06 04:40:30;;;;;;;29.90;19.15;;;10.30;99.90;;;;;;4997222;28;20026;-72
2022/05/06 04:42:56;;;;;;;26.55;18.33;;;10.30;99.90;;;;;;4997212;28;20050;-77
2022/05/06 04:45:21;;;;;;;32.55;20.02;;;10.40;99.90;;;;;;4995941;28;20042;-77
2022/05/06 04:47:47;;;;;;;33.05;20.60;;;10.50;99.90;;;;;;5012285;28;20037;-74
2022/05/06 04:50:13;;;;;;;36.38;23.00;;;10.60;99.90;;;;;;5009354;28;20042;-73
2022/05/06 04:52:38;;;;;;;35.95;25.80;;;10.60;99.90;;;;;;5007815;28;20472;-77
2022/05/06 04:55:05;;;;;;;51.83;33.08;;;10.70;99.90;;;;;;5005501;28;20075;-77
2022/05/06 04:57:30;;;;;;;52.88;36.28;;;10.80;99.90;;;;;;5005411;28;20034;-74
2022/05/06 04:59:56;;;;;;;40.00;26.30;;;10.90;99.90;;;;;;4997101;28;20030;-77
2022/05/06 05:02:21;;;;;;;34.75;23.58;;;10.90;99.90;;;;;;4979398;28;20133;-73
2022/05/06 05:04:52;;;;;;;36.22;24.10;;;11.00;99.90;;;;;;4996821;28;20045;-73
2022/05/06 05:07:17;;;;;;;43.17;31.10;;;11.20;99.90;;;;;;4996874;28;20121;-72
2022/05/06 05:09:44;;;;;;;63.40;42.60;;;11.30;99.90;;;;;;4979510;28;20550;-77
2022/05/06 05:12:09;;;;;;;47.30;33.53;;;11.40;99.90;;;;;;4999608;28;20165;-78
2022/05/06 05:14:36;;;;;;;69.72;46.60;;;11.40;99.90;;;;;;5015166;28;20124;-77
2022/05/06 05:17:01;;;;;;;68.32;43.95;;;11.50;99.90;;;;;;5014241;28;20395;-73
2022/05/06 05:19:27;;;;;;;64.75;40.92;;;11.60;99.90;;;;;;5013752;28;20116;-73
2022/05/06 05:21:53;;;;;;;50.35;36.03;;;11.60;99.90;;;;;;5014104;28;20034;-73
2022/05/06 05:24:18;;;;;;;52.67;35.53;;;11.70;99.90;;;;;;5014340;28;20053;-77
2022/05/06 05:26:44;;;;;;;58.42;39.30;;;11.80;99.90;;;;;;5015402;28;20061;-77
2022/05/06 05:29:10;;;;;;;52.22;36.47;;;11.90;99.90;;;;;;5013508;28;20149;-74
2022/05/06 05:31:35;;;;;;;51.63;36.53;;;12.00;99.90;;;;;;5014507;28;20462;-77
2022/05/06 05:34:01;;;;;;;48.97;33.13;;;12.10;99.90;;;;;;4997289;28;20038;-77
2022/05/06 05:36:26;;;;;;;50.17;32.08;;;12.10;99.90;;;;;;5013650;28;20021;-77
2022/05/06 05:38:52;;;;;;;57.08;38.85;;;12.20;99.90;;;;;;5014460;28;20042;-77
2022/05/06 05:41:17;;;;;;;58.92;38.30;;;12.20;99.90;;;;;;5014494;28;20030;-78
2022/05/06 05:49:11;;;;;;;47.88;31.13;;;12.40;99.90;;;;;;5015189;28;20041;-74
2022/05/06 05:51:36;;;;;;;56.22;35.50;;;12.60;99.90;;;;;;5014605;28;20042;-73
2022/05/06 05:54:02;;;;;;;56.28;39.97;;;12.70;99.90;;;;;;4997625;28;20096;-74
2022/05/06 05:56:28;;;;;;;49.13;33.40;;;12.80;99.90;;;;;;4997524;28;20479;-78
2022/05/06 05:58:53;;;;;;;48.53;32.50;;;12.80;99.90;;;;;;5015599;28;20026;-74
2022/05/06 06:01:19;;;;;;;49.22;31.50;;;12.90;99.90;;;;;;5013041;28;20037;-77
2022/05/06 06:03:45;;;;;;;49.70;30.77;;;12.90;99.90;;;;;;5014658;28;20472;-77
2022/05/06 06:06:10;;;;;;;42.38;29.25;;;13.00;99.90;;;;;;5013398;28;20029;-74
2022/05/06 06:08:36;;;;;;;49.50;33.67;;;13.00;99.90;;;;;;4995860;28;20112;-74
2022/05/06 06:11:03;;;;;;;48.55;32.92;;;13.10;99.90;;;;;;4995683;28;20050;-74
2022/05/06 06:13:32;;;;;;;50.47;33.25;;;13.20;99.90;;;;;;4995679;28;20060;-78
2022/05/06 06:15:58;;;;;;;56.10;34.95;;;13.20;99.90;;;;;;4994712;28;20045;-73
2022/05/06 06:18:27;;;;;;;48.75;33.70;;;13.30;99.90;;;;;;4994611;28;20026;-78
2022/05/06 06:20:56;;;;;;;49.33;32.22;;;13.40;99.90;;;;;;4995231;28;20352;-78
2022/05/06 06:23:23;;;;;;;52.38;32.63;;;13.40;99.90;;;;;;5013247;28;20129;-74
2022/05/06 06:25:48;;;;;;;48.40;32.72;;;13.40;99.90;;;;;;5013161;28;20377;-73
2022/05/06 06:28:14;;;;;;;54.47;32.58;;;13.40;99.90;;;;;;4995646;28;20018;-77
2022/05/06 06:30:40;;;;;;;44.50;31.23;;;13.40;99.90;;;;;;5013861;28;20030;-76
2022/05/06 06:33:07;;;;;;;49.75;31.40;;;13.40;99.90;;;;;;5015206;28;20029;-78
2022/05/06 06:35:33;;;;;;;47.88;30.02;;;13.40;99.90;;;;;;5013744;28;20103;-77
2022/05/06 06:38:00;;;;;;;47.25;31.08;;;13.40;99.90;;;;;;4997582;28;20034;-75
2022/05/06 06:40:25;;;;;;;51.30;31.45;;;13.40;99.90;;;;;;5013744;28;20076;-78
2022/05/06 06:42:51;;;;;;;49.92;32.70;;;13.50;99.90;;;;;;4996571;28;20018;-76
2022/05/06 06:45:17;;;;;;;53.65;33.33;;;13.50;99.90;;;;;;5014682;28;20041;-74
2022/05/06 06:47:43;;;;;;;51.22;34.78;;;13.60;99.90;;;;;;4997240;28;20475;-77
2022/05/06 06:50:09;;;;;;;55.92;34.70;;;13.60;99.90;;;;;;5014558;28;20033;-77
2022/05/06 06:52:35;;;;;;;56.45;36.25;;;13.60;99.90;;;;;;5014783;28;20029;-75
2022/05/06 06:55:00;;;;;;;54.10;33.78;;;13.60;99.90;;;;;;5014642;28;20101;-74
2022/05/06 06:57:30;;;;;;;60.83;34.17;;;13.60;99.90;;;;;;5014688;28;20026;-74
2022/05/06 06:59:55;;;;;;;53.85;32.38;;;13.60;99.90;;;;;;5014685;28;20084;-75
2022/05/06 07:02:21;;;;;;;51.55;30.40;;;13.60;99.90;;;;;;5013327;28;20022;-74
2022/05/06 07:04:46;;;;;;;53.30;30.38;;;13.50;99.90;;;;;;4996849;28;20492;-77
2022/05/06 07:12:40;;;;;;;57.10;34.15;;;13.40;99.90;;;;;;5014427;28;20045;-74
2022/05/06 07:15:06;;;;;;;60.72;35.20;;;13.40;99.90;;;;;;5012890;28;20018;-74
2022/05/06 07:17:32;;;;;;;68.93;39.17;;;13.40;99.90;;;;;;5013009;28;20499;-75
2022/05/06 07:19:57;;;;;;;66.28;37.58;;;13.40;99.90;;;;;;4996603;28;20026;-77
2022/05/06 07:22:23;;;;;;;60.00;35.67;;;13.50;99.90;;;;;;5014235;28;20026;-74
2022/05/06 07:24:48;;;;;;;62.22;37.67;;;13.50;99.90;;;;;;5014140;28;20033;-77
2022/05/06 07:27:14;;;;;;;67.88;37.25;;;13.60;99.90;;;;;;5014321;28;20057;-77
2022/05/06 07:29:40;;;;;;;63.75;37.33;;;13.60;99.90;;;;;;5012735;28;20068;-74
2022/05/06 07:32:06;;;;;;;56.97;33.53;;;13.60;99.90;;;;;;5013832;28;20037;-78
2022/05/06 07:34:31;;;;;;;60.97;37.22;;;13.80;99.90;;;;;;5012739;28;20558;-78
2022/05/06 07:36:57;;;;;;;62.88;36.55;;;13.90;99.90;;;;;;5013928;28;20108;-78
2022/05/06 07:39:23;;;;;;;61.78;35.85;;;13.90;99.90;;;;;;5013940;28;20052;-77
2022/05/06 07:41:48;;;;;;;64.57;37.35;;;14.00;99.90;;;;;;5013883;28;20036;-75
2022/05/06 07:44:14;;;;;;;63.83;36.22;;;14.20;99.90;;;;;;4994125;28;20018;-78
2022/05/06 07:46:40;;;;;;;55.65;34.58;;;14.20;99.90;;;;;;5012147;28;20029;-78
2022/05/06 07:49:06;;;;;;;57.47;36.78;;;14.30;99.90;;;;;;5006303;28;20109;-78
2022/05/06 07:51:32;;;;;;;63.08;36.97;;;14.40;99.90;;;;;;5001291;28;20113;-75
2022/05/06 07:53:58;;;;;;;51.50;34.60;;;14.50;99.90;;;;;;4993871;28;20484;-78
2022/05/06 07:56:24;;;;;;;59.72;36.08;;;14.50;99.90;;;;;;4992233;28;20034;-76
2022/05/06 07:58:51;;;;;;;55.92;34.92;;;14.60;99.90;;;;;;4991767;28;20109;-78
2022/05/06 08:01:17;;;;;;;51.90;33.15;;;14.60;99.90;;;;;;4992783;28;20084;-75
2022/05/06 08:06:27;;;;;;;47.30;32.25;;;14.80;99.90;;;;;;4993003;28;20089;-75
2022/05/06 08:08:53;;;;;;;46.78;31.13;;;15.00;99.90;;;;;;4992145;28;20038;-74
2022/05/06 08:11:18;;;;;;;39.75;26.85;;;15.10;99.90;;;;;;4991707;28;20134;-78
2022/05/06 08:13:44;;;;;;;41.55;29.17;;;15.20;99.90;;;;;;4992465;28;20113;-78
2022/05/06 08:16:10;;;;;;;44.78;28.15;;;15.30;99.90;;;;;;4999342;28;20451;-78
2022/05/06 08:18:36;;;;;;;36.70;25.35;;;15.30;99.90;;;;;;5005449;28;20031;-74
2022/05/06 08:21:03;;;;;;;33.20;24.05;;;15.50;99.90;;;;;;4992513;28;20061;-74
2022/05/06 08:23:29;;;;;;;32.17;23.48;;;15.60;99.90;;;;;;4974844;28;20058;-78
2022/05/06 08:25:54;;;;;;;37.75;24.77;;;15.70;99.90;;;;;;4992097;28;20058;-79
2022/05/06 08:28:21;;;;;;;35.55;23.88;;;15.90;99.90;;;;;;4974816;28;20034;-74
2022/05/06 08:30:47;;;;;;;34.17;22.58;;;15.90;99.90;;;;;;5008298;28;20061;-75
2022/05/06 08:33:14;;;;;;;30.33;21.75;;;15.90;99.90;;;;;;5012097;28;20106;-76
2022/05/06 08:35:40;;;;;;;28.90;20.95;;;16.00;99.90;;;;;;4999766;28;20030;-76
2022/05/06 08:38:07;;;;;;;32.63;22.23;;;16.10;99.90;;;;;;4974515;28;20038;-76
2022/05/06 08:40:35;;;;;;;37.10;23.58;;;16.10;99.90;;;;;;4986845;28;20081;-75
2022/05/06 08:43:03;;;;;;;30.90;22.30;;;16.30;99.90;;;;;;5002293;28;20044;-79
2022/05/06 08:51:00;;;;;;;27.38;22.00;;;16.50;99.90;;;;;;5012280;28;20573;-79
2022/05/06 08:53:28;;;;;;;32.92;24.00;;;16.40;99.90;;;;;;5011577;28;20065;-79
2022/05/06 08:55:55;;;;;;;33.10;22.30;;;16.30;99.90;;;;;;4993709;28;20036;-76
2022/05/06 08:58:25;;;;;;;32.97;23.67;;;16.30;99.90;;;;;;4993916;28;20069;-76
2022/05/06 09:01:10;;;;;;;30.13;23.38;;;16.40;99.90;;;;;;4994560;28;20072;-75
2022/05/06 09:03:40;;;;;;;30.85;21.48;;;16.40;99.90;;;;;;4994290;28;20432;-78
2022/05/06 09:06:17;;;;;;;27.55;20.83;;;16.50;99.90;;;;;;5011961;28;20388;-76
2022/05/06 09:08:44;;;;;;;29.23;21.08;;;16.50;99.90;;;;;;5015570;28;20100;-76
2022/05/06 09:11:11;;;;;;;28.40;21.27;;;16.50;99.90;;;;;;4996985;28;20054;-76
2022/05/06 09:13:58;;;;;;;28.48;20.88;;;16.50;99.90;;;;;;5015173;28;20030;-75
2022/05/06 09:16:40;;;;;;;28.40;21.58;;;16.30;99.90;;;;;;5009029;28;20030;-75
2022/05/06 09:19:12;;;;;;;;;;;16.40;99.90;;;;;;4998149;28;20040;-78
2022/05/06 09:21:39;;;;;;;27.80;21.08;;;16.50;99.90;;;;;;5015509;28;20283;-79
2022/05/06 09:24:17;;;;;;;29.25;22.50;;;16.40;99.90;;;;;;4997198;28;20045;-76
2022/05/06 09:27:05;;;;;;;29.80;22.35;;;16.40;99.90;;;;;;4998080;28;20097;-76
2022/05/06 09:29:40;;;;;;;27.00;19.10;;;16.60;99.90;;;;;;5014792;28;20112;-78
2022/05/06 09:32:13;;;;;;;31.15;20.70;;;16.80;99.90;;;;;;5014717;28;20038;-76
2022/05/06 09:34:40;;;;;;;30.48;23.25;;;16.90;99.90;;;;;;5015767;28;20033;-78
2022/05/06 09:37:06;;;;;;;35.03;23.88;;;16.90;99.90;;;;;;5014289;28;20475;-79
2022/05/06 09:39:32;;;;;;;27.77;21.05;;;17.00;99.90;;;;;;5015755;28;20026;-75
2022/05/06 09:42:03;;;;;;;28.83;21.60;;;17.10;99.90;;;;;;5014521;28;20041;-79
2022/05/06 09:44:29;;;;;;;30.38;21.67;;;17.00;99.90;;;;;;5015651;28;20113;-76
2022/05/06 09:47:09;;;;;;;27.38;21.48;;;17.10;99.90;;;;;;5014580;28;20065;-76
2022/05/06 09:49:39;;;;;;;27.17;19.70;;;17.00;99.90;;;;;;4995866;28;20440;-79
2022/05/06 09:52:23;;;;;;;22.98;17.90;;;17.10;99.90;;;;;;5015123;28;20436;-77
2022/05/06 09:54:48;;;;;;;28.83;21.55;;;17.10;99.90;;;;;;4997506;28;20026;-76
2022/05/06 09:57:16;;;;;;;35.08;25.35;;;17.00;99.90;;;;;;4977950;28;20130;-76
2022/05/06 09:59:42;;;;;;;40.17;24.90;;;17.00;99.90;;;;;;4995518;28;20037;-76
2022/05/06 10:02:09;;;;;;;30.38;21.52;;;17.00;99.90;;;;;;4978124;28;20110;-77
2022/05/06 10:04:35;;;;;;;29.08;21.25;;;16.90;99.90;;;;;;4995343;28;20077;-77
2022/05/06 10:07:04;;;;;;;31.48;21.60;;;16.80;99.90;;;;;;4995165;28;20518;-76
2022/05/06 10:09:37;;;;;;;29.38;22.02;;;16.90;99.90;;;;;;4995411;28;20032;-77
2022/05/06 10:12:05;;;;;;;27.80;21.17;;;17.00;99.90;;;;;;4977802;28;20050;-75
2022/05/06 10:14:33;;;;;;;27.65;20.48;;;17.10;99.90;;;;;;4995274;28;20022;-76
2022/05/06 10:16:59;;;;;;;21.55;18.17;;;17.00;98.90;;;;;;4994799;28;20030;-76
2022/05/06 10:19:45;;;;;;;25.13;18.52;;;17.00;94.10;;;;;;4995963;28;20026;-80
2022/05/06 10:22:10;;;;;;;24.83;19.88;;;17.10;93.60;;;;;;4978113;28;20026;-80
2022/05/06 10:24:49;;;;;;;24.30;18.92;;;17.20;95.30;;;;;;4977595;28;20030;-80
2022/05/06 10:32:25;;;;;;;21.80;18.13;;;17.40;97.30;;;;;;4994896;28;20026;-80
2022/05/06 10:33:18;;;;;;;22.88;18.70;;;17.70;92.20;;;;;;4995154;28;20033;-80
2022/05/06 10:35:46;;;;;;;23.10;18.15;;;17.80;87.90;;;;;;4981853;28;20128;-80
2022/05/06 10:38:20;;;;;;;21.80;17.35;;;17.80;90.40;;;;;;5003572;28;20062;-80
2022/05/06 10:41:02;;;;;;;20.98;17.20;;;17.80;85.70;;;;;;5002911;28;20452;-79
2022/05/06 10:43:44;;;;;;;19.02;15.15;;;17.70;84.50;;;;;;5003417;28;20034;-80
2022/05/06 10:46:10;;;;;;;19.23;16.30;;;17.80;82.20;;;;;;5000347;28;20026;-79
2022/05/06 10:48:35;;;;;;;19.63;15.50;;;17.80;81.10;;;;;;4977275;28;20030;-77
2022/05/06 10:51:21;;;;;;;19.63;15.35;;;17.90;82.10;;;;;;4994566;28;20480;-76
2022/05/06 10:53:47;;;;;;;20.27;15.50;;;18.00;80.60;;;;;;4977157;28;20035;-76
2022/05/06 10:56:14;;;;;;;17.52;14.68;;;18.10;79.30;;;;;;4994230;28;20495;-75
2022/05/06 10:58:40;;;;;;;16.67;14.45;;;18.20;80.10;;;;;;4977001;28;20037;-76
2022/05/06 11:01:06;;;;;;;18.42;14.82;;;18.30;80.30;;;;;;4976457;28;20109;-76
2022/05/06 11:03:32;;;;;;;18.70;14.50;;;18.50;80.80;;;;;;4976921;28;20035;-78
2022/05/06 11:05:57;;;;;;;18.40;13.90;;;18.50;77.60;;;;;;4994101;28;20054;-75
2022/05/06 11:08:35;;;;;;;18.70;14.15;;;18.60;76.40;;;;;;4977097;28;20026;-77
2022/05/06 11:11:01;;;;;;;16.08;13.68;;;18.60;79.10;;;;;;4994152;28;20050;-76
2022/05/06 11:13:27;;;;;;;19.52;14.65;;;18.60;76.50;;;;;;4994341;28;20030;-80
2022/05/06 11:15:55;;;;;;;17.20;14.02;;;18.60;72.60;;;;;;4976158;28;20026;-76
2022/05/06 11:18:21;;;;;;;16.00;14.13;;;18.70;73.70;;;;;;4981101;28;20030;-76
2022/05/06 11:20:47;;;;;;;16.23;14.00;;;18.60;73.80;;;;;;4996083;28;20025;-76
2022/05/06 11:23:14;;;;;;;15.93;12.80;;;18.60;72.40;;;;;;4996100;28;20026;-76
2022/05/06 11:25:47;;;;;;;15.30;12.60;;;18.50;71.50;;;;;;5013342;28;20033;-76
2022/05/06 11:28:16;;;;;;;17.75;14.00;;;18.60;72.60;;;;;;5013718;28;20026;-76
2022/05/06 11:30:47;;;;;;;13.27;11.98;;;18.50;71.60;;;;;;4994856;28;20444;-79
2022/05/06 11:33:25;;;;;;;14.63;10.82;;;18.60;70.40;;;;;;5013700;28;20026;-79
2022/05/06 11:36:01;;;;;;;11.27;10.13;;;18.70;70.70;;;;;;5013263;28;20024;-80
2022/05/06 11:38:38;;;;;;;14.32;11.48;;;18.70;69.00;;;;;;5013455;28;20022;-76
2022/05/06 11:41:15;;;;;;;14.38;11.30;;;18.80;69.80;;;;;;4995899;28;20025;-75
2022/05/06 11:43:42;;;;;;;12.85;11.35;;;18.90;68.10;;;;;;5012107;28;20029;-76
2022/05/06 11:49:03;;;;;;;12.45;11.15;;;18.80;67.70;;;;;;5013566;28;20087;-77
2022/05/06 11:51:42;;;;;;;11.80;10.18;;;18.90;67.10;;;;;;5013157;28;20117;-76
2022/05/06 11:54:09;;;;;;;13.90;11.30;;;18.80;64.10;;;;;;4995763;28;20030;-76
2022/05/06 11:56:36;;;;;;;12.98;11.48;;;18.80;67.60;;;;;;4995195;28;20025;-76
2022/05/06 11:59:03;;;;;;;13.45;12.02;;;18.70;70.00;;;;;;5013286;28;20057;-79
2022/05/06 12:01:30;;;;;;;17.63;11.85;;;18.60;70.50;;;;;;5012750;28;20029;-76
2022/05/06 12:04:03;;;;;;;15.35;12.77;;;18.70;72.90;;;;;;4995750;28;20022;-79
2022/05/06 12:06:31;;;;;;;13.25;11.82;;;18.70;72.10;;;;;;4995153;28;20545;-76
2022/05/06 12:09:13;;;;;;;14.60;11.73;;;18.70;73.90;;;;;;5013397;28;20084;-79
2022/05/06 12:11:41;;;;;;;14.57;11.57;;;18.40;70.90;;;;;;4995391;28;20057;-80
2022/05/06 12:14:09;;;;;;;17.00;12.30;;;18.50;71.50;;;;;;4995326;28;20126;-80
2022/05/06 12:16:35;;;;;;;18.15;13.30;;;18.50;69.50;;;;;;4994543;28;20435;-79
2022/05/06 12:19:00;;;;;;;18.27;13.88;;;18.30;70.30;;;;;;5013182;28;20025;-79
2022/05/06 12:21:27;;;;;;;17.27;13.70;;;18.20;71.80;;;;;;5012981;28;20055;-79
2022/05/06 12:23:58;;;;;;;16.13;14.43;;;18.00;73.30;;;;;;4995558;28;20506;-80
2022/05/06 12:26:28;;;;;;;19.75;16.30;;;18.00;73.90;;;;;;4995064;28;20022;-76
2022/05/06 12:28:54;;;;;;;17.33;15.10;;;17.90;77.20;;;;;;4995225;28;20026;-76
2022/05/06 12:31:31;;;;;;;17.30;15.43;;;17.90;77.40;;;;;;5012139;28;20034;-79
2022/05/06 12:34:01;;;;;;;21.77;15.48;;;17.80;78.60;;;;;;5013164;28;20010;-79
2022/05/06 12:36:27;;;;;;;16.00;14.27;;;17.60;76.90;;;;;;5012680;28;20018;-76
2022/05/06 12:38:53;;;;;;;20.48;17.08;;;17.60;77.80;;;;;;4995563;28;20026;-78
2022/05/06 12:41:20;;;;;;;20.38;16.52;;;17.60;76.80;;;;;;5013512;28;20545;-76
2022/05/06 12:43:47;;;;;;;18.95;14.60;;;17.50;76.10;;;;;;5017155;28;20491;-76
2022/05/06 12:46:27;;;;;;;17.05;15.18;;;17.70;76.70;;;;;;5015981;28;20097;-76
2022/05/06 12:51:39;;;;;;;16.98;14.32;;;17.60;75.50;;;;;;5017040;28;20044;-77
2022/05/06 12:54:05;;;;;;;19.17;14.90;;;17.70;76.00;;;;;;4999293;28;20048;-79
2022/05/06 12:56:31;;;;;;;16.90;14.90;;;17.80;76.10;;;;;;5016770;28;20022;-77
2022/05/06 12:58:56;;;;;;;20.48;18.30;;;17.90;76.00;;;;;;4999411;28;20112;-79
2022/05/06 13:01:22;;;;;;;21.98;17.02;;;17.90;74.90;;;;;;4998302;28;20025;-76
2022/05/06 13:03:48;;;;;;;20.85;17.80;;;17.80;76.20;;;;;;5015615;28;20095;-79
2022/05/06 13:06:14;;;;;;;21.85;17.52;;;17.90;77.70;;;;;;4998551;28;20025;-76
2022/05/06 13:08:40;;;;;;;21.27;16.70;;;17.80;76.30;;;;;;5016175;28;20036;-77
2022/05/06 13:11:05;;;;;;;20.10;15.85;;;17.80;75.50;;;;;;4998219;28;20124;-76
2022/05/06 13:13:31;;;;;;;20.00;16.52;;;17.90;74.50;;;;;;4998492;28;20022;-76